createdAt,value
2022-07-29T00:00:19.359Z,48.69
2022-07-29T00:03:07.479Z,48.97
2022-07-29T00:05:56.202Z,49.33
2022-07-29T00:08:44.214Z,49.66
2022-07-29T00:11:32.237Z,49.81
2022-07-29T00:14:21.700Z,50.27
2022-07-29T00:17:09.776Z,50.08
2022-07-29T00:19:58.094Z,50.81
2022-07-29T00:22:46.119Z,51.21
2022-07-29T00:25:34.078Z,51.47
2022-07-29T00:28:22.112Z,51.92
2022-07-29T00:31:11.735Z,52.16
2022-07-29T00:33:59.829Z,52.30
2022-07-29T00:36:46.914Z,52.41
2022-07-29T00:39:34.893Z,52.06
2022-07-29T00:42:22.915Z,52.26
2022-07-29T00:45:11.628Z,53.48
2022-07-29T00:48:01.065Z,53.35
2022-07-29T00:50:50.820Z,53.92
2022-07-29T00:53:39.823Z,54.71
2022-07-29T00:56:27.983Z,55.34
2022-07-29T00:59:15.984Z,56.19
2022-07-29T01:02:04.469Z,56.84
2022-07-29T01:04:54.151Z,57.53
2022-07-29T01:07:43.226Z,58.01
2022-07-29T01:10:32.144Z,58.68
2022-07-29T01:13:21.092Z,59.67
2022-07-29T01:16:16.528Z,61.47
2022-07-29T01:19:14.995Z,62.99
2022-07-29T01:22:23.621Z,65.93
2022-07-29T01:25:34.481Z,67.32
2022-07-29T01:29:08.672Z,69.79
2022-07-29T01:32:01.384Z,72.38
2022-07-29T01:34:54.282Z,73.86
2022-07-29T01:37:49.232Z,75.41
2022-07-29T01:40:42.562Z,76.05
2022-07-29T01:43:38.238Z,76.39
2022-07-29T01:46:33.726Z,76.95
2022-07-29T01:49:26.146Z,77.19
2022-07-29T01:52:20.950Z,78.24
2022-07-29T01:55:14.473Z,80.94
2022-07-29T01:58:05.226Z,80.82
2022-07-29T02:00:54.247Z,82.54
2022-07-29T02:03:46.778Z,82.59
2022-07-29T02:06:37.531Z,81.91
2022-07-29T02:09:27.659Z,81.28
2022-07-29T02:12:18.562Z,80.56
2022-07-29T02:15:11.460Z,77.90
2022-07-29T02:18:03.851Z,75.70
2022-07-29T02:20:56.853Z,74.80
2022-07-29T02:23:50.698Z,73.87
2022-07-29T02:26:42.072Z,73.81
2022-07-29T02:29:32.122Z,73.47
2022-07-29T02:32:23.507Z,73.06
2022-07-29T02:35:15.702Z,72.24
2022-07-29T02:38:23.680Z,67.12
2022-07-29T02:41:15.435Z,63.32
2022-07-29T02:44:07.153Z,62.77
2022-07-29T02:47:01.315Z,62.40
2022-07-29T02:49:55.964Z,61.63
2022-07-29T02:52:46.962Z,59.39
2022-07-29T02:55:42.101Z,58.93
2022-07-29T02:58:33.091Z,59.93
2022-07-29T03:01:24.233Z,59.09
2022-07-29T03:04:15.068Z,57.61
2022-07-29T03:07:05.499Z,57.13
2022-07-29T03:09:54.707Z,57.04
2022-07-29T03:12:44.623Z,57.53
2022-07-29T03:15:33.790Z,56.34
2022-07-29T03:18:22.231Z,55.95
2022-07-29T03:21:10.364Z,56.09
2022-07-29T03:23:58.330Z,56.45
2022-07-29T03:26:46.439Z,56.34
2022-07-29T03:29:35.888Z,55.86
2022-07-29T03:32:25.303Z,55.46
2022-07-29T03:35:13.775Z,55.52
2022-07-29T03:38:01.809Z,55.81
2022-07-29T03:40:56.015Z,55.33
2022-07-29T03:43:49.279Z,55.89
2022-07-29T03:46:41.643Z,55.91
2022-07-29T03:49:30.162Z,56.20
2022-07-29T03:52:18.555Z,56.51
2022-07-29T03:55:07.949Z,55.95
2022-07-29T03:57:58.783Z,56.27
2022-07-29T04:00:48.220Z,56.66
2022-07-29T04:03:38.798Z,56.23
2022-07-29T04:06:27.595Z,56.10
2022-07-29T04:09:16.056Z,56.74
2022-07-29T04:12:04.660Z,56.80
2022-07-29T04:14:52.741Z,55.90
2022-07-29T04:17:40.781Z,56.61
2022-07-29T04:20:30.153Z,56.63
2022-07-29T04:23:18.335Z,56.80
2022-07-29T04:26:07.213Z,57.66
2022-07-29T04:28:56.819Z,58.04
2022-07-29T04:31:45.487Z,58.00
2022-07-29T04:34:33.611Z,59.33
2022-07-29T04:37:22.970Z,59.56
2022-07-29T04:40:12.752Z,61.06
2022-07-29T04:43:01.675Z,61.28
2022-07-29T04:45:53.755Z,63.98
2022-07-29T04:48:41.883Z,65.70
2022-07-29T04:51:29.978Z,66.05
2022-07-29T04:54:19.688Z,67.21
2022-07-29T04:57:07.879Z,68.75
2022-07-29T04:59:55.891Z,68.34
2022-07-29T05:02:44.015Z,68.78
2022-07-29T05:05:32.063Z,70.16
2022-07-29T05:08:20.126Z,70.67
2022-07-29T05:11:12.546Z,70.29
2022-07-29T05:14:01.546Z,69.29
2022-07-29T05:16:51.958Z,69.19
2022-07-29T05:19:40.039Z,69.60
2022-07-29T05:22:27.991Z,64.50
2022-07-29T05:25:16.006Z,64.54
2022-07-29T05:28:05.800Z,62.24
2022-07-29T05:30:53.866Z,61.72
2022-07-29T05:33:42.052Z,63.67
2022-07-29T05:36:30.118Z,62.04
2022-07-29T05:39:18.131Z,62.13
2022-07-29T05:42:10.296Z,61.16
2022-07-29T05:44:59.938Z,61.22
2022-07-29T05:47:47.944Z,60.95
2022-07-29T05:50:35.940Z,62.99
2022-07-29T05:53:36.062Z,62.69
2022-07-29T05:56:24.373Z,63.31
2022-07-29T05:59:17.342Z,62.38
2022-07-29T06:02:07.753Z,61.28
2022-07-29T06:04:55.819Z,60.50
2022-07-29T06:07:49.981Z,58.82
2022-07-29T06:10:39.163Z,59.16
2022-07-29T06:13:27.229Z,59.13
2022-07-29T06:16:15.834Z,58.37
2022-07-29T06:19:19.392Z,59.11
2022-07-29T06:22:07.415Z,58.97
2022-07-29T06:24:55.398Z,58.63
2022-07-29T06:27:43.451Z,58.59
2022-07-29T06:30:31.671Z,59.29
2022-07-29T06:33:20.093Z,57.71
2022-07-29T06:36:10.409Z,57.76
2022-07-29T06:39:00.441Z,57.03
2022-07-29T06:41:51.934Z,56.49
2022-07-29T06:44:39.975Z,56.81
2022-07-29T06:47:28.073Z,58.86
2022-07-29T06:50:16.364Z,57.41
2022-07-29T06:53:06.789Z,57.96
2022-07-29T06:55:54.973Z,61.91
2022-07-29T06:58:42.951Z,64.15
2022-07-29T07:01:31.093Z,65.22
2022-07-29T07:04:19.396Z,65.11
2022-07-29T07:07:07.689Z,62.98
2022-07-29T07:09:57.087Z,63.57
2022-07-29T07:12:45.124Z,60.50
2022-07-29T07:15:39.161Z,59.00
2022-07-29T07:18:28.918Z,57.35
2022-07-29T07:21:19.178Z,52.66
2022-07-29T07:24:08.451Z,51.88
2022-07-29T07:26:57.826Z,51.24
2022-07-29T07:29:45.825Z,50.38
2022-07-29T07:32:33.927Z,50.09
2022-07-29T07:35:21.982Z,51.71
2022-07-29T07:38:10.165Z,53.34
2022-07-29T07:40:58.424Z,51.61
2022-07-29T07:43:47.849Z,49.08
2022-07-29T07:46:36.044Z,47.29
2022-07-29T07:49:26.505Z,46.59
2022-07-29T07:52:14.916Z,47.03
2022-07-29T07:55:02.991Z,48.25
2022-07-29T07:57:51.113Z,48.57
2022-07-29T08:00:40.539Z,50.56
2022-07-29T08:03:28.602Z,51.66
2022-07-29T08:06:17.021Z,52.07
2022-07-29T08:09:27.747Z,53.03
2022-07-29T08:12:13.739Z,53.43
2022-07-29T08:15:01.738Z,54.17
2022-07-29T08:17:51.166Z,54.31
2022-07-29T08:20:39.934Z,54.70
2022-07-29T08:23:45.450Z,53.39
2022-07-29T08:26:36.831Z,53.54
2022-07-29T08:29:24.993Z,54.52
2022-07-29T08:32:13.272Z,53.87
2022-07-29T08:35:02.774Z,54.17
2022-07-29T08:37:51.438Z,53.67
2022-07-29T08:40:39.714Z,53.70
2022-07-29T08:43:27.955Z,54.22
2022-07-29T08:46:16.233Z,53.87
2022-07-29T08:49:04.497Z,51.94
2022-07-29T08:51:55.839Z,50.72
2022-07-29T08:54:45.897Z,50.84
2022-07-29T08:57:35.395Z,49.86
2022-07-29T09:00:27.532Z,48.57
2022-07-29T09:03:20.268Z,47.82
2022-07-29T09:06:08.424Z,47.66
2022-07-29T09:09:00.721Z,48.38
2022-07-29T09:11:49.363Z,47.43
2022-07-29T09:14:37.371Z,46.12
2022-07-29T09:17:43.781Z,46.67
2022-07-29T09:20:51.899Z,47.66
2022-07-29T09:23:40.651Z,48.07
2022-07-29T09:26:31.877Z,47.57
2022-07-29T09:29:21.855Z,48.98
2022-07-29T09:32:12.394Z,48.95
2022-07-29T09:35:17.320Z,49.20
2022-07-29T09:38:12.967Z,48.54
2022-07-29T09:41:05.439Z,47.75
2022-07-29T09:43:59.836Z,47.64
2022-07-29T09:46:59.110Z,46.65
2022-07-29T09:49:58.727Z,46.88
2022-07-29T09:52:48.801Z,48.21
2022-07-29T09:55:48.809Z,48.28
2022-07-29T09:58:36.955Z,46.77
2022-07-29T10:01:31.040Z,46.37
2022-07-29T10:04:19.845Z,46.81
2022-07-29T10:07:07.976Z,44.95
2022-07-29T10:09:57.841Z,45.59
2022-07-29T10:12:51.485Z,46.48
2022-07-29T10:15:41.806Z,46.47
2022-07-29T10:18:32.022Z,46.36
2022-07-29T10:21:34.838Z,44.76
2022-07-29T10:24:25.531Z,44.54
2022-07-29T10:27:13.685Z,44.23
2022-07-29T10:30:02.597Z,44.74
2022-07-29T10:33:11.219Z,44.42
2022-07-29T10:36:17.393Z,43.75
2022-07-29T10:39:22.401Z,43.08
2022-07-29T10:42:20.110Z,43.85
2022-07-29T10:45:08.848Z,43.86
2022-07-29T10:48:07.940Z,44.96
2022-07-29T10:50:58.237Z,45.54
2022-07-29T10:53:52.106Z,45.32
2022-07-29T10:56:42.213Z,44.61
2022-07-29T11:02:50.147Z,43.05
2022-07-29T11:05:55.483Z,42.23
2022-07-29T11:08:43.853Z,41.65
2022-07-29T11:11:35.197Z,42.07
2022-07-29T11:14:56.660Z,42.48
2022-07-29T11:18:06.557Z,43.12
2022-07-29T11:20:55.095Z,43.18
2022-07-29T11:23:44.853Z,43.14
2022-07-29T11:26:35.242Z,41.36
2022-07-29T11:29:24.020Z,40.68
2022-07-29T11:32:18.126Z,41.70
2022-07-29T11:35:17.435Z,41.93
2022-07-29T11:38:27.852Z,41.68
2022-07-29T11:41:27.297Z,42.26
2022-07-29T11:44:17.983Z,40.72
2022-07-29T11:47:06.930Z,40.55
2022-07-29T11:49:57.215Z,40.25
2022-07-29T11:52:49.755Z,39.81
2022-07-29T11:55:51.383Z,39.25
2022-07-29T11:58:40.421Z,38.57
2022-07-29T12:01:30.783Z,37.87
2022-07-29T12:04:21.322Z,37.50
2022-07-29T12:07:11.100Z,38.14
2022-07-29T12:10:05.206Z,37.54
2022-07-29T12:12:54.518Z,38.46
2022-07-29T12:15:47.118Z,38.26
2022-07-29T12:18:36.824Z,37.95
2022-07-29T12:21:25.767Z,38.53
2022-07-29T12:24:13.931Z,37.57
2022-07-29T12:27:02.665Z,37.92
2022-07-29T12:29:58.344Z,37.92
2022-07-29T12:32:48.968Z,37.71
2022-07-29T12:35:38.514Z,36.88
2022-07-29T12:38:27.355Z,36.85
2022-07-29T12:41:15.649Z,36.90
2022-07-29T12:44:04.088Z,36.77
2022-07-29T12:47:03.967Z,35.96
2022-07-29T12:50:08.611Z,35.81
2022-07-29T12:53:10.955Z,35.12
2022-07-29T12:56:07.995Z,35.44
2022-07-29T12:59:16.765Z,36.25
2022-07-29T13:02:05.018Z,36.35
2022-07-29T13:04:58.666Z,37.54
2022-07-29T13:07:55.463Z,38.09
2022-07-29T13:10:46.623Z,37.69
2022-07-29T13:13:34.670Z,37.86
2022-07-29T13:16:22.725Z,37.96
2022-07-29T13:19:14.311Z,39.15
2022-07-29T13:22:02.304Z,39.37
2022-07-29T13:24:52.158Z,39.74
2022-07-29T13:27:41.910Z,39.08
2022-07-29T13:30:30.141Z,39.13
2022-07-29T13:33:18.607Z,38.33
2022-07-29T13:36:07.013Z,38.39
2022-07-29T13:38:55.012Z,37.96
2022-07-29T13:41:43.441Z,37.77
2022-07-29T13:44:32.883Z,35.88
2022-07-29T13:47:21.105Z,34.43
2022-07-29T13:50:11.385Z,35.02
2022-07-29T13:52:59.398Z,33.78
2022-07-29T13:55:47.426Z,33.24
2022-07-29T13:58:37.795Z,32.81
2022-07-29T14:01:28.007Z,32.39
2022-07-29T14:04:16.320Z,32.57
2022-07-29T14:07:04.613Z,32.89
2022-07-29T14:09:52.713Z,32.32
2022-07-29T14:12:42.796Z,32.96
2022-07-29T14:15:30.817Z,32.66
2022-07-29T14:18:20.149Z,32.15
2022-07-29T14:21:08.170Z,31.75
2022-07-29T14:23:56.461Z,31.83
2022-07-29T14:26:44.484Z,32.35
2022-07-29T14:29:37.294Z,32.38
2022-07-29T14:32:25.924Z,32.06
2022-07-29T14:35:15.671Z,32.44
2022-07-29T14:38:03.910Z,32.39
2022-07-29T14:40:51.927Z,33.01
2022-07-29T14:43:39.918Z,32.77
2022-07-29T14:46:28.303Z,32.44
2022-07-29T14:49:16.415Z,32.02
2022-07-29T14:52:06.893Z,32.23
2022-07-29T14:54:54.907Z,32.17
2022-07-29T14:57:42.925Z,31.99
2022-07-29T15:00:33.167Z,31.65
2022-07-29T15:03:23.743Z,32.15
2022-07-29T15:06:12.540Z,32.41
2022-07-29T15:09:01.935Z,32.46
2022-07-29T15:11:49.943Z,31.94
2022-07-29T15:14:37.993Z,32.13
2022-07-29T15:17:26.075Z,32.14
2022-07-29T15:20:14.613Z,32.44
2022-07-29T15:23:02.699Z,31.91
2022-07-29T15:25:52.077Z,32.77
2022-07-29T15:28:41.054Z,33.70
2022-07-29T15:31:29.486Z,34.35
2022-07-29T15:34:17.756Z,34.34
2022-07-29T15:37:06.518Z,34.33
2022-07-29T15:39:59.704Z,34.68
2022-07-29T15:42:49.356Z,35.04
2022-07-29T15:45:40.412Z,34.59
2022-07-29T15:48:28.772Z,34.85
2022-07-29T15:51:17.318Z,34.36
2022-07-29T15:54:06.197Z,34.98
2022-07-29T15:56:54.437Z,35.13
2022-07-29T15:59:43.778Z,35.66
2022-07-29T16:02:31.782Z,35.73
2022-07-29T16:05:19.871Z,36.45
2022-07-29T16:08:07.946Z,36.72
2022-07-29T16:10:55.974Z,37.20
2022-07-29T16:13:44.026Z,37.53
2022-07-29T16:16:33.775Z,38.09
2022-07-29T16:19:21.805Z,37.69
2022-07-29T16:22:09.961Z,38.03
2022-07-29T16:24:57.993Z,38.93
2022-07-29T16:27:46.023Z,39.33
2022-07-29T16:30:34.195Z,39.76
2022-07-29T16:33:23.665Z,55.69
2022-07-29T16:36:13.203Z,100.00
2022-07-29T16:39:04.911Z,100.00
2022-07-29T16:41:54.953Z,100.00
2022-07-29T16:44:46.356Z,100.00
2022-07-29T16:47:34.529Z,100.00
2022-07-29T16:50:25.522Z,100.00
2022-07-29T16:53:14.242Z,100.00
2022-07-29T16:56:02.872Z,100.00
2022-07-29T16:58:50.915Z,100.00
2022-07-29T17:01:39.089Z,100.00
2022-07-29T17:04:27.461Z,100.00
2022-07-29T17:07:16.883Z,100.00
2022-07-29T17:10:07.980Z,100.00
2022-07-29T17:12:56.133Z,100.00
2022-07-29T17:15:44.432Z,100.00
2022-07-29T17:18:32.479Z,100.00
2022-07-29T17:21:20.712Z,100.00
2022-07-29T17:24:10.326Z,100.00
2022-07-29T17:26:58.773Z,100.00
2022-07-29T17:29:47.471Z,100.00
2022-07-29T17:32:38.488Z,100.00
2022-07-29T17:35:44.273Z,100.00
2022-07-29T17:38:32.282Z,100.00
2022-07-29T17:41:22.195Z,100.00
2022-07-29T17:44:10.317Z,100.00
2022-07-29T17:46:58.671Z,100.00
2022-07-29T17:49:47.235Z,100.00
2022-07-29T17:52:35.300Z,100.00
2022-07-29T17:55:23.285Z,100.00
2022-07-29T17:58:12.986Z,100.00
2022-07-29T18:01:01.303Z,100.00
2022-07-29T18:03:50.016Z,100.00
2022-07-29T18:06:38.251Z,100.00
2022-07-29T18:09:26.222Z,100.00
2022-07-29T18:12:14.364Z,100.00
2022-07-29T18:15:04.066Z,100.00
2022-07-29T18:17:57.663Z,100.00
2022-07-29T18:20:46.086Z,100.00
2022-07-29T18:23:34.291Z,100.00
2022-07-29T18:26:23.333Z,100.00
2022-07-29T18:29:18.447Z,100.00
2022-07-29T18:32:08.493Z,100.00
2022-07-29T18:34:56.493Z,100.00
2022-07-29T18:38:01.109Z,100.00
2022-07-29T18:40:50.784Z,100.00
2022-07-29T18:43:38.885Z,100.00
2022-07-29T18:46:27.071Z,100.00
2022-07-29T18:49:16.496Z,100.00
2022-07-29T18:52:05.056Z,100.00
2022-07-29T18:54:53.161Z,100.00
2022-07-29T18:57:56.289Z,100.00
2022-07-29T19:00:44.928Z,100.00
2022-07-29T19:03:33.005Z,100.00
2022-07-29T19:06:25.595Z,100.00
2022-07-29T19:09:14.176Z,100.00
2022-07-29T19:12:03.797Z,100.00
2022-07-29T19:14:51.888Z,100.00
2022-07-29T19:17:40.221Z,100.00
2022-07-29T19:20:28.378Z,100.00
2022-07-29T19:23:18.404Z,100.00
2022-07-29T19:26:06.585Z,100.00
2022-07-29T19:28:56.442Z,100.00
2022-07-29T19:31:44.754Z,100.00
2022-07-29T19:34:33.012Z,100.00
2022-07-29T19:37:21.025Z,100.00
2022-07-29T19:40:12.127Z,100.00
2022-07-29T19:43:00.693Z,100.00
2022-07-29T19:45:49.271Z,100.00
2022-07-29T19:48:37.806Z,100.00
2022-07-29T19:51:25.890Z,100.00
2022-07-29T19:54:15.529Z,100.00
2022-07-29T19:57:05.242Z,100.00
2022-07-29T19:59:53.197Z,100.00
2022-07-29T20:02:42.824Z,100.00
2022-07-29T20:05:31.101Z,100.00
2022-07-29T20:08:19.348Z,100.00
2022-07-29T20:11:07.696Z,100.00
2022-07-29T20:13:57.053Z,100.00
2022-07-29T20:16:45.532Z,100.00
2022-07-29T20:19:33.593Z,100.00
2022-07-29T20:22:21.711Z,100.00
2022-07-29T20:25:11.808Z,100.00
2022-07-29T20:27:59.992Z,100.00
2022-07-29T20:30:49.399Z,100.00
2022-07-29T20:33:37.665Z,100.00
2022-07-29T20:36:25.825Z,100.00
2022-07-29T20:39:13.840Z,100.00
2022-07-29T20:42:02.069Z,100.00
2022-07-29T20:44:51.064Z,100.00
2022-07-29T20:47:40.451Z,100.00
2022-07-29T20:50:28.652Z,100.00
2022-07-29T20:53:18.960Z,100.00
2022-07-29T20:56:07.617Z,100.00
2022-07-29T20:58:55.790Z,100.00
2022-07-29T21:01:43.823Z,100.00
2022-07-29T21:04:33.292Z,100.00
2022-07-29T21:07:21.256Z,100.00
2022-07-29T21:10:09.750Z,100.00
2022-07-29T21:12:57.754Z,100.00
2022-07-29T21:15:49.155Z,100.00
2022-07-29T21:18:37.855Z,100.00
2022-07-29T21:21:27.682Z,100.00
2022-07-29T21:24:15.784Z,100.00
2022-07-29T21:27:21.066Z,100.00
2022-07-29T21:30:10.727Z,100.00
2022-07-29T21:32:59.180Z,100.00
2022-07-29T21:36:14.921Z,100.00
2022-07-29T21:38:56.591Z,100.00
2022-07-29T21:41:44.654Z,100.00
2022-07-29T21:44:32.693Z,100.00
2022-07-29T21:47:20.763Z,100.00
2022-07-29T21:50:09.385Z,100.00
2022-07-29T21:52:57.377Z,100.00
2022-07-29T21:55:50.430Z,100.00
2022-07-29T21:58:38.441Z,100.00
2022-07-29T22:01:26.769Z,100.00
2022-07-29T22:04:15.111Z,100.00
2022-07-29T22:07:03.623Z,100.00
2022-07-29T22:09:51.909Z,100.00
2022-07-29T22:12:41.377Z,100.00
2022-07-29T22:15:30.204Z,100.00
2022-07-29T22:18:20.533Z,100.00
2022-07-29T22:21:09.509Z,100.00
2022-07-29T22:23:57.525Z,100.00
2022-07-29T22:26:45.611Z,100.00
2022-07-29T22:29:34.968Z,100.00
2022-07-29T22:32:23.057Z,100.00
2022-07-29T22:35:11.535Z,100.00
2022-07-29T22:37:59.547Z,100.00
2022-07-29T22:40:48.771Z,100.00
2022-07-29T22:43:39.587Z,100.00
2022-07-29T22:46:29.075Z,100.00
2022-07-29T22:49:17.095Z,100.00
2022-07-29T22:52:05.480Z,100.00
2022-07-29T22:54:53.522Z,100.00
2022-07-29T22:57:41.757Z,100.00
2022-07-29T23:00:29.794Z,100.00
2022-07-29T23:03:19.433Z,100.00
2022-07-29T23:06:08.035Z,100.00
2022-07-29T23:08:56.025Z,100.00
2022-07-29T23:11:44.042Z,100.00
2022-07-29T23:14:32.534Z,100.00
2022-07-29T23:17:20.599Z,100.00
2022-07-29T23:20:10.517Z,100.00
2022-07-29T23:22:58.513Z,100.00
2022-07-29T23:25:46.551Z,100.00
2022-07-29T23:28:34.531Z,100.00
2022-07-29T23:31:22.541Z,100.00
2022-07-29T23:34:10.586Z,100.00
2022-07-29T23:37:00.198Z,100.00
2022-07-29T23:39:48.467Z,100.00
2022-07-29T23:42:36.480Z,100.00
2022-07-29T23:45:32.499Z,100.00
2022-07-29T23:48:32.766Z,100.00
2022-07-29T23:51:20.896Z,100.00
2022-07-29T23:54:10.339Z,100.00
2022-07-29T23:56:59.651Z,100.00
2022-07-29T23:59:47.856Z,100.00
